Dudinka, Russia
Current Conditions -  °F | °C
As of 3:30 PM on Sunday 23 Nov 2014 (Local Time) from USNN Reporting Station
Clear Clear  
Wind Chill: -37°   Ceiling: Unl
Heat Index: -24°   Visibility: 6mi
Dew Point: -33°   Wind: 4mph
Humidity: 63%   Direction: 290°WNW
Pressure: 29.97"   Gusts: NA
Location:  69.41°N, 86.18°E
Report Text: USNN 230830Z 29002MPS 260V330 CAVOK M31/M36 Q1015 NOSIG RMKQFE756 2131//58
Loading
Personal Weather Stations






























Interactive Weather Map New forecast layout! Learn more

10-Day Weather Forecast

Advertisements
Track Severe Weather on mobile